sensor_id;sensor_type;location;lat;lon;timestamp;pressure;altitude;pressure_sealevel;temperature;humidity
50103;BME280;35993;52.604;10.078;2023-03-22T00:00:25;100682.81;;;7.92;100.00
50103;BME280;35993;52.604;10.078;2023-03-22T00:02:52;100677.59;;;7.91;100.00
50103;BME280;35993;52.604;10.078;2023-03-22T00:05:19;100674.03;;;7.90;100.00
50103;BME280;35993;52.604;10.078;2023-03-22T00:07:44;100677.59;;;7.91;100.00
50103;BME280;35993;52.604;10.078;2023-03-22T00:10:10;100678.41;;;7.91;100.00
50103;BME280;35993;52.604;10.078;2023-03-22T00:12:36;100674.91;;;7.91;100.00
50103;BME280;35993;52.604;10.078;2023-03-22T00:15:01;100683.00;;;7.91;100.00
50103;BME280;35993;52.604;10.078;2023-03-22T00:17:27;100670.53;;;7.90;100.00
50103;BME280;35993;52.604;10.078;2023-03-22T00:19:52;100671.56;;;7.88;100.00
50103;BME280;35993;52.604;10.078;2023-03-22T00:22:21;100673.63;;;7.86;100.00
50103;BME280;35993;52.604;10.078;2023-03-22T00:24:47;100674.25;;;7.88;100.00
50103;BME280;35993;52.604;10.078;2023-03-22T00:27:12;100673.81;;;7.85;100.00
50103;BME280;35993;52.604;10.078;2023-03-22T00:29:38;100667.34;;;7.79;100.00
50103;BME280;35993;52.604;10.078;2023-03-22T00:32:03;100665.09;;;7.83;100.00
50103;BME280;35993;52.604;10.078;2023-03-22T00:34:31;100669.47;;;7.84;100.00
50103;BME280;35993;52.604;10.078;2023-03-22T00:36:56;100663.63;;;7.80;100.00
50103;BME280;35993;52.604;10.078;2023-03-22T00:39:22;100658.00;;;7.82;100.00
50103;BME280;35993;52.604;10.078;2023-03-22T00:41:48;100666.94;;;7.82;100.00
50103;BME280;35993;52.604;10.078;2023-03-22T00:44:13;100658.16;;;7.74;100.00
50103;BME280;35993;52.604;10.078;2023-03-22T00:46:39;100657.56;;;7.78;100.00
50103;BME280;35993;52.604;10.078;2023-03-22T00:49:04;100648.00;;;7.76;100.00
50103;BME280;35993;52.604;10.078;2023-03-22T00:51:30;100641.13;;;7.73;100.00
50103;BME280;35993;52.604;10.078;2023-03-22T00:53:55;100642.59;;;7.76;100.00
50103;BME280;35993;52.604;10.078;2023-03-22T00:56:21;100640.09;;;7.74;100.00
50103;BME280;35993;52.604;10.078;2023-03-22T00:58:55;100635.06;;;7.71;100.00
50103;BME280;35993;52.604;10.078;2023-03-22T01:01:21;100629.25;;;7.67;100.00
50103;BME280;35993;52.604;10.078;2023-03-22T01:03:47;100629.25;;;7.67;100.00
50103;BME280;35993;52.604;10.078;2023-03-22T01:06:15;100629.59;;;7.58;100.00
50103;BME280;35993;52.604;10.078;2023-03-22T01:08:41;100623.56;;;7.55;100.00
50103;BME280;35993;52.604;10.078;2023-03-22T01:11:08;100615.44;;;7.55;100.00
50103;BME280;35993;52.604;10.078;2023-03-22T01:13:34;100624.78;;;7.53;100.00
50103;BME280;35993;52.604;10.078;2023-03-22T01:16:02;100619.59;;;7.51;100.00
50103;BME280;35993;52.604;10.078;2023-03-22T01:18:28;100624.38;;;7.49;100.00
50103;BME280;35993;52.604;10.078;2023-03-22T01:20:54;100621.84;;;7.48;100.00
50103;BME280;35993;52.604;10.078;2023-03-22T01:23:19;100617.69;;;7.45;100.00
50103;BME280;35993;52.604;10.078;2023-03-22T01:25:45;100623.06;;;7.38;100.00
50103;BME280;35993;52.604;10.078;2023-03-22T01:28:11;100624.28;;;7.36;100.00
50103;BME280;35993;52.604;10.078;2023-03-22T01:30:39;100615.78;;;7.39;100.00
50103;BME280;35993;52.604;10.078;2023-03-22T01:33:05;100614.75;;;7.40;100.00
50103;BME280;35993;52.604;10.078;2023-03-22T01:35:34;100615.41;;;7.42;100.00
50103;BME280;35993;52.604;10.078;2023-03-22T01:38:01;100605.22;;;7.44;100.00
50103;BME280;35993;52.604;10.078;2023-03-22T01:40:27;100603.56;;;7.43;100.00
50103;BME280;35993;52.604;10.078;2023-03-22T01:42:53;100597.09;;;7.44;100.00
50103;BME280;35993;52.604;10.078;2023-03-22T01:47:58;100604.19;;;7.45;100.00
50103;BME280;35993;52.604;10.078;2023-03-22T01:50:26;100597.97;;;7.45;100.00
50103;BME280;35993;52.604;10.078;2023-03-22T01:52:53;100596.53;;;7.49;100.00
50103;BME280;35993;52.604;10.078;2023-03-22T01:55:25;100592.75;;;7.43;100.00
50103;BME280;35993;52.604;10.078;2023-03-22T01:58:04;100595.06;;;7.46;100.00
50103;BME280;35993;52.604;10.078;2023-03-22T02:00:39;100585.72;;;7.49;100.00
50103;BME280;35993;52.604;10.078;2023-03-22T02:06:12;100581.16;;;7.49;100.00
50103;BME280;35993;52.604;10.078;2023-03-22T02:08:38;100581.19;;;7.56;100.00
50103;BME280;35993;52.604;10.078;2023-03-22T02:11:15;100572.88;;;7.58;100.00
50103;BME280;35993;52.604;10.078;2023-03-22T02:16:47;100572.88;;;7.58;100.00
50103;BME280;35993;52.604;10.078;2023-03-22T02:31:23;100549.63;;;7.63;100.00
50103;BME280;35993;52.604;10.078;2023-03-22T02:34:02;100552.53;;;7.62;100.00
50103;BME280;35993;52.604;10.078;2023-03-22T02:42:08;100551.72;;;7.68;100.00
50103;BME280;35993;52.604;10.078;2023-03-22T02:44:45;100545.69;;;7.66;100.00
50103;BME280;35993;52.604;10.078;2023-03-22T02:47:36;100542.97;;;7.66;100.00
50103;BME280;35993;52.604;10.078;2023-03-22T02:50:13;100555.66;;;7.65;100.00
50103;BME280;35993;52.604;10.078;2023-03-22T02:52:54;100549.84;;;7.68;100.00
50103;BME280;35993;52.604;10.078;2023-03-22T02:55:27;100559.19;;;7.66;100.00
50103;BME280;35993;52.604;10.078;2023-03-22T02:58:09;100553.16;;;7.64;100.00
50103;BME280;35993;52.604;10.078;2023-03-22T03:00:37;100547.75;;;7.64;100.00
50103;BME280;35993;52.604;10.078;2023-03-22T03:03:07;100545.50;;;7.67;100.00
50103;BME280;35993;52.604;10.078;2023-03-22T03:05:41;100543.19;;;7.71;100.00
50103;BME280;35993;52.604;10.078;2023-03-22T03:08:09;100551.53;;;7.76;100.00
50103;BME280;35993;52.604;10.078;2023-03-22T03:10:39;100543.03;;;7.79;100.00
50103;BME280;35993;52.604;10.078;2023-03-22T03:13:10;100543.69;;;7.81;100.00
50103;BME280;35993;52.604;10.078;2023-03-22T03:15:37;100547.84;;;7.84;100.00
50103;BME280;35993;52.604;10.078;2023-03-22T03:24:02;100545.53;;;7.81;100.00
50103;BME280;35993;52.604;10.078;2023-03-22T03:32:22;100541.78;;;7.82;100.00
50103;BME280;35993;52.604;10.078;2023-03-22T03:37:33;100537.84;;;7.84;100.00
50103;BME280;35993;52.604;10.078;2023-03-22T03:40:08;100544.94;;;7.85;100.00
50103;BME280;35993;52.604;10.078;2023-03-22T03:42:42;100543.25;;;7.84;100.00
50103;BME280;35993;52.604;10.078;2023-03-22T03:45:10;100539.53;;;7.85;100.00
50103;BME280;35993;52.604;10.078;2023-03-22T03:47:36;100539.31;;;7.87;100.00
50103;BME280;35993;52.604;10.078;2023-03-22T03:50:03;100537.25;;;7.89;100.00
50103;BME280;35993;52.604;10.078;2023-03-22T03:52:30;100524.34;;;7.91;100.00
50103;BME280;35993;52.604;10.078;2023-03-22T03:54:56;100521.44;;;7.93;100.00
50103;BME280;35993;52.604;10.078;2023-03-22T03:57:28;100527.91;;;7.92;100.00
50103;BME280;35993;52.604;10.078;2023-03-22T03:59:53;100531.00;;;7.88;100.00
50103;BME280;35993;52.604;10.078;2023-03-22T04:02:42;100528.94;;;7.91;100.00
50103;BME280;35993;52.604;10.078;2023-03-22T04:05:18;100524.78;;;7.95;100.00
50103;BME280;35993;52.604;10.078;2023-03-22T04:07:43;100524.78;;;7.95;100.00
50103;BME280;35993;52.604;10.078;2023-03-22T04:10:09;100523.75;;;7.96;100.00
50103;BME280;35993;52.604;10.078;2023-03-22T04:12:35;100528.31;;;7.95;100.00
50103;BME280;35993;52.604;10.078;2023-03-22T04:15:12;100522.28;;;7.93;100.00
50103;BME280;35993;52.604;10.078;2023-03-22T04:17:38;100524.56;;;7.96;100.00
50103;BME280;35993;52.604;10.078;2023-03-22T04:20:09;100520.41;;;8.00;100.00
50103;BME280;35993;52.604;10.078;2023-03-22T04:22:37;100521.88;;;7.96;100.00
50103;BME280;35993;52.604;10.078;2023-03-22T04:25:04;100518.34;;;7.96;100.00
50103;BME280;35993;52.604;10.078;2023-03-22T04:27:30;100517.31;;;7.97;100.00
50103;BME280;35993;52.604;10.078;2023-03-22T04:30:00;100512.53;;;7.99;100.00
50103;BME280;35993;52.604;10.078;2023-03-22T04:32:49;100509.19;;;7.97;100.00
50103;BME280;35993;52.604;10.078;2023-03-22T04:35:17;100505.66;;;7.96;100.00
50103;BME280;35993;52.604;10.078;2023-03-22T04:37:43;100506.50;;;7.97;100.00
50103;BME280;35993;52.604;10.078;2023-03-22T04:40:16;100506.06;;;8.00;100.00
50103;BME280;35993;52.604;10.078;2023-03-22T04:42:52;100503.81;;;8.03;100.00
50103;BME280;35993;52.604;10.078;2023-03-22T04:45:30;100506.50;;;8.03;100.00
50103;BME280;35993;52.604;10.078;2023-03-22T04:48:00;100505.88;;;8.01;100.00
50103;BME280;35993;52.604;10.078;2023-03-22T04:50:26;100504.19;;;8.00;100.00
50103;BME280;35993;52.604;10.078;2023-03-22T04:52:56;100492.56;;;8.00;100.00
50103;BME280;35993;52.604;10.078;2023-03-22T04:55:23;100492.13;;;8.03;100.00
50103;BME280;35993;52.604;10.078;2023-03-22T04:57:48;100493.00;;;8.03;100.00
50103;BME280;35993;52.604;10.078;2023-03-22T05:00:15;100500.25;;;8.03;100.00
50103;BME280;35993;52.604;10.078;2023-03-22T05:02:45;100492.78;;;8.05;100.00
50103;BME280;35993;52.604;10.078;2023-03-22T05:05:28;100495.47;;;8.05;100.00
50103;BME280;35993;52.604;10.078;2023-03-22T05:07:54;100500.06;;;8.04;100.00
50103;BME280;35993;52.604;10.078;2023-03-22T05:10:20;100501.09;;;8.03;100.00
50103;BME280;35993;52.604;10.078;2023-03-22T05:12:46;100492.13;;;8.03;100.00
50103;BME280;35993;52.604;10.078;2023-03-22T05:15:19;100488.81;;;8.01;100.00
50103;BME280;35993;52.604;10.078;2023-03-22T05:17:47;100492.78;;;8.05;100.00
50103;BME280;35993;52.604;10.078;2023-03-22T05:20:13;100494.84;;;8.03;100.00
50103;BME280;35993;52.604;10.078;2023-03-22T05:22:41;100487.59;;;8.03;100.00
50103;BME280;35993;52.604;10.078;2023-03-22T05:25:08;100490.28;;;8.03;100.00
50103;BME280;35993;52.604;10.078;2023-03-22T05:27:35;100488.41;;;8.04;100.00
50103;BME280;35993;52.604;10.078;2023-03-22T05:30:23;100493.00;;;8.03;100.00
50103;BME280;35993;52.604;10.078;2023-03-22T05:33:00;100490.88;;;8.06;100.00
50103;BME280;35993;52.604;10.078;2023-03-22T05:35:29;100488.41;;;8.04;100.00
50103;BME280;35993;52.604;10.078;2023-03-22T05:37:56;100497.16;;;8.06;100.00
50103;BME280;35993;52.604;10.078;2023-03-22T05:40:25;100501.72;;;8.06;100.00
50103;BME280;35993;52.604;10.078;2023-03-22T05:42:52;100499.00;;;8.06;100.00
50103;BME280;35993;52.604;10.078;2023-03-22T05:45:22;100509.63;;;8.07;100.00
50103;BME280;35993;52.604;10.078;2023-03-22T05:47:59;100499.22;;;8.04;100.00
50103;BME280;35993;52.604;10.078;2023-03-22T05:50:26;100508.41;;;8.10;100.00
50103;BME280;35993;52.604;10.078;2023-03-22T05:52:53;100493.63;;;8.12;100.00
50103;BME280;35993;52.604;10.078;2023-03-22T05:55:25;100500.06;;;8.18;100.00
50103;BME280;35993;52.604;10.078;2023-03-22T05:57:54;100496.75;;;8.23;100.00
50103;BME280;35993;52.604;10.078;2023-03-22T06:00:21;100497.19;;;8.26;100.00
50103;BME280;35993;52.604;10.078;2023-03-22T06:03:20;100490.09;;;8.32;100.00
50103;BME280;35993;52.604;10.078;2023-03-22T06:06:12;100483.44;;;8.34;100.00
50103;BME280;35993;52.604;10.078;2023-03-22T06:08:45;100473.25;;;8.36;100.00
50103;BME280;35993;52.604;10.078;2023-03-22T06:11:11;100464.50;;;8.41;100.00
50103;BME280;35993;52.604;10.078;2023-03-22T06:13:37;100457.84;;;8.44;100.00
50103;BME280;35993;52.604;10.078;2023-03-22T06:16:04;100461.00;;;8.47;100.00
50103;BME280;35993;52.604;10.078;2023-03-22T06:18:30;100455.38;;;8.49;100.00
50103;BME280;35993;52.604;10.078;2023-03-22T06:21:04;100449.97;;;8.49;100.00
50103;BME280;35993;52.604;10.078;2023-03-22T06:23:30;100450.81;;;8.49;100.00
50103;BME280;35993;52.604;10.078;2023-03-22T06:25:56;100450.81;;;8.49;100.00
50103;BME280;35993;52.604;10.078;2023-03-22T06:28:22;100443.94;;;8.47;100.00
50103;BME280;35993;52.604;10.078;2023-03-22T06:30:50;100440.38;;;8.46;100.00
50103;BME280;35993;52.604;10.078;2023-03-22T06:33:34;100442.91;;;8.48;100.00
50103;BME280;35993;52.604;10.078;2023-03-22T06:36:06;100444.97;;;8.46;100.00
50103;BME280;35993;52.604;10.078;2023-03-22T06:38:40;100452.66;;;8.49;100.00
50103;BME280;35993;52.604;10.078;2023-03-22T06:41:06;100449.97;;;8.49;100.00
50103;BME280;35993;52.604;10.078;2023-03-22T06:43:32;100451.22;;;8.53;100.00
50103;BME280;35993;52.604;10.078;2023-03-22T06:46:10;100459.53;;;8.58;100.00
50103;BME280;35993;52.604;10.078;2023-03-22T06:48:43;100461.00;;;8.61;100.00
50103;BME280;35993;52.604;10.078;2023-03-22T06:51:13;100458.28;;;8.67;100.00
50103;BME280;35993;52.604;10.078;2023-03-22T06:53:39;100451.38;;;8.72;100.00
50103;BME280;35993;52.604;10.078;2023-03-22T06:56:05;100449.72;;;8.77;100.00
50103;BME280;35993;52.604;10.078;2023-03-22T06:58:40;100460.75;;;8.82;100.00
50103;BME280;35993;52.604;10.078;2023-03-22T07:01:06;100449.28;;;8.87;100.00
50103;BME280;35993;52.604;10.078;2023-03-22T07:03:32;100452.16;;;8.92;100.00
50103;BME280;35993;52.604;10.078;2023-03-22T07:06:05;100450.50;;;8.98;100.00
50103;BME280;35993;52.604;10.078;2023-03-22T07:08:35;100458.81;;;9.03;100.00
50103;BME280;35993;52.604;10.078;2023-03-22T07:11:02;100453.19;;;9.05;100.00
50103;BME280;35993;52.604;10.078;2023-03-22T07:13:27;100460.28;;;9.06;100.00
50103;BME280;35993;52.604;10.078;2023-03-22T07:15:59;100463.38;;;9.09;100.00
50103;BME280;35993;52.604;10.078;2023-03-22T07:18:33;100467.13;;;9.08;100.00
50103;BME280;35993;52.604;10.078;2023-03-22T07:20:58;100455.03;;;9.11;100.00
50103;BME280;35993;52.604;10.078;2023-03-22T07:23:24;100461.06;;;9.13;100.00
50103;BME280;35993;52.604;10.078;2023-03-22T07:25:52;100459.19;;;9.13;100.00
50103;BME280;35993;52.604;10.078;2023-03-22T07:28:24;100457.72;;;9.17;100.00
50103;BME280;35993;52.604;10.078;2023-03-22T07:31:02;100452.50;;;9.23;100.00
50103;BME280;35993;52.604;10.078;2023-03-22T07:33:38;100444.34;;;9.29;100.00
50103;BME280;35993;52.604;10.078;2023-03-22T07:36:05;100456.78;;;9.44;100.00
50103;BME280;35993;52.604;10.078;2023-03-22T07:38:31;100457.13;;;9.61;100.00
50103;BME280;35993;52.604;10.078;2023-03-22T07:40:57;100451.41;;;9.76;100.00
50103;BME280;35993;52.604;10.078;2023-03-22T07:43:30;100453.78;;;9.91;100.00
50103;BME280;35993;52.604;10.078;2023-03-22T07:46:07;100441.84;;;9.98;100.00
50103;BME280;35993;52.604;10.078;2023-03-22T07:48:51;100442.00;;;10.10;100.00
50103;BME280;35993;52.604;10.078;2023-03-22T07:51:36;100439.13;;;10.05;100.00
50103;BME280;35993;52.604;10.078;2023-03-22T07:54:02;100444.13;;;10.02;100.00
50103;BME280;35993;52.604;10.078;2023-03-22T07:56:28;100447.25;;;10.05;100.00
50103;BME280;35993;52.604;10.078;2023-03-22T07:58:54;100446.63;;;10.03;100.00
50103;BME280;35993;52.604;10.078;2023-03-22T08:01:19;100446.78;;;10.08;100.00
50103;BME280;35993;52.604;10.078;2023-03-22T08:04:03;100439.69;;;10.07;100.00
50103;BME280;35993;52.604;10.078;2023-03-22T08:06:55;100438.66;;;10.08;100.00
50103;BME280;35993;52.604;10.078;2023-03-22T08:09:24;100434.63;;;10.17;100.00
50103;BME280;35993;52.604;10.078;2023-03-22T08:11:50;100434.94;;;10.28;100.00
50103;BME280;35993;52.604;10.078;2023-03-22T08:14:16;100432.63;;;10.31;100.00
50103;BME280;35993;52.604;10.078;2023-03-22T08:16:41;100431.31;;;10.41;100.00
50103;BME280;35993;52.604;10.078;2023-03-22T08:19:09;100420.78;;;10.51;100.00
50103;BME280;35993;52.604;10.078;2023-03-22T08:21:36;100413.47;;;10.70;100.00
50103;BME280;35993;52.604;10.078;2023-03-22T08:24:05;100406.50;;;10.81;100.00
50103;BME280;35993;52.604;10.078;2023-03-22T08:26:53;100408.88;;;10.89;100.00
50103;BME280;35993;52.604;10.078;2023-03-22T08:29:25;100414.28;;;10.96;100.00
50103;BME280;35993;52.604;10.078;2023-03-22T08:31:52;100416.97;;;10.96;100.00
50103;BME280;35993;52.604;10.078;2023-03-22T08:34:19;100407.75;;;10.97;100.00
50103;BME280;35993;52.604;10.078;2023-03-22T08:36:44;100398.41;;;10.93;100.00
50103;BME280;35993;52.604;10.078;2023-03-22T08:39:10;100401.41;;;11.03;100.00
50103;BME280;35993;52.604;10.078;2023-03-22T08:41:53;100400.03;;;11.12;100.00
50103;BME280;35993;52.604;10.078;2023-03-22T08:44:21;100395.59;;;11.18;100.00
50103;BME280;35993;52.604;10.078;2023-03-22T08:46:46;100396.66;;;11.17;100.00
50103;BME280;35993;52.604;10.078;2023-03-22T08:49:12;100381.63;;;11.14;100.00
50103;BME280;35993;52.604;10.078;2023-03-22T08:51:45;100376.69;;;11.11;100.00
50103;BME280;35993;52.604;10.078;2023-03-22T08:54:17;100383.53;;;11.14;100.00
50103;BME280;35993;52.604;10.078;2023-03-22T08:56:52;100384.34;;;11.14;100.00
50103;BME280;35993;52.604;10.078;2023-03-22T08:59:31;100376.81;;;11.17;100.00
50103;BME280;35993;52.604;10.078;2023-03-22T09:02:17;100378.81;;;11.21;100.00
50103;BME280;35993;52.604;10.078;2023-03-22T09:04:43;100370.66;;;11.21;100.00
50103;BME280;35993;52.604;10.078;2023-03-22T09:07:09;100372.72;;;11.26;100.00
50103;BME280;35993;52.604;10.078;2023-03-22T09:09:35;100376.03;;;11.28;100.00
50103;BME280;35993;52.604;10.078;2023-03-22T09:12:01;100369.22;;;11.37;100.00
50103;BME280;35993;52.604;10.078;2023-03-22T09:14:27;100369.94;;;11.44;100.00
50103;BME280;35993;52.604;10.078;2023-03-22T09:16:53;100375.97;;;11.46;100.00
50103;BME280;35993;52.604;10.078;2023-03-22T09:19:19;100365.91;;;11.47;100.00
50103;BME280;35993;52.604;10.078;2023-03-22T09:21:44;100364.78;;;11.55;100.00
50103;BME280;35993;52.604;10.078;2023-03-22T09:24:18;100355.22;;;11.52;100.00
50103;BME280;35993;52.604;10.078;2023-03-22T09:26:48;100355.56;;;11.56;100.00
50103;BME280;35993;52.604;10.078;2023-03-22T09:29:16;100356.53;;;11.61;100.00
50103;BME280;35993;52.604;10.078;2023-03-22T09:31:43;100356.41;;;11.68;100.00
50103;BME280;35993;52.604;10.078;2023-03-22T09:34:16;100339.91;;;11.82;100.00
50103;BME280;35993;52.604;10.078;2023-03-22T09:36:42;100340.16;;;11.92;100.00
50103;BME280;35993;52.604;10.078;2023-03-22T09:39:08;100340.31;;;11.97;100.00
50103;BME280;35993;52.604;10.078;2023-03-22T09:41:35;100333.69;;;12.05;100.00
50103;BME280;35993;52.604;10.078;2023-03-22T09:44:06;100331.06;;;12.22;100.00
50103;BME280;35993;52.604;10.078;2023-03-22T09:46:37;100330.47;;;12.20;100.00
50103;BME280;35993;52.604;10.078;2023-03-22T09:49:09;100330.25;;;12.21;100.00
50103;BME280;35993;52.604;10.078;2023-03-22T09:51:45;100326.06;;;12.42;100.00
50103;BME280;35993;52.604;10.078;2023-03-22T09:54:13;100319.19;;;12.52;98.70
50103;BME280;35993;52.604;10.078;2023-03-22T09:56:39;100317.44;;;12.45;96.56
50103;BME280;35993;52.604;10.078;2023-03-22T09:59:14;100319.94;;;12.47;97.90
50103;BME280;35993;52.604;10.078;2023-03-22T10:02:03;100324.53;;;12.58;97.51
50103;BME280;35993;52.604;10.078;2023-03-22T10:05:00;100312.09;;;12.62;95.78
50103;BME280;35993;52.604;10.078;2023-03-22T10:07:48;100308.63;;;12.67;94.94
50103;BME280;35993;52.604;10.078;2023-03-22T10:10:20;100310.78;;;12.65;95.06
50103;BME280;35993;52.604;10.078;2023-03-22T10:15:36;100307.97;;;12.89;95.02
50103;BME280;35993;52.604;10.078;2023-03-22T10:18:05;100298.41;;;12.74;92.79
50103;BME280;35993;52.604;10.078;2023-03-22T10:21:05;100300.13;;;12.64;92.63
50103;BME280;35993;52.604;10.078;2023-03-22T10:23:43;100294.44;;;12.65;92.18
50103;BME280;35993;52.604;10.078;2023-03-22T10:26:19;100285.88;;;12.73;91.73
50103;BME280;35993;52.604;10.078;2023-03-22T10:28:54;100276.94;;;12.90;89.64
50103;BME280;35993;52.604;10.078;2023-03-22T10:31:21;100280.28;;;13.09;89.93
50103;BME280;35993;52.604;10.078;2023-03-22T10:33:57;100271.66;;;13.29;89.16
50103;BME280;35993;52.604;10.078;2023-03-22T10:36:26;100281.69;;;13.40;88.88
50103;BME280;35993;52.604;10.078;2023-03-22T10:39:00;100277.28;;;13.22;88.64
50103;BME280;35993;52.604;10.078;2023-03-22T10:41:29;100276.25;;;13.11;88.66
50103;BME280;35993;52.604;10.078;2023-03-22T10:43:59;100283.50;;;13.06;87.93
50103;BME280;35993;52.604;10.078;2023-03-22T10:46:32;100286.06;;;13.13;87.21
50103;BME280;35993;52.604;10.078;2023-03-22T10:49:01;100276.94;;;13.19;86.13
50103;BME280;35993;52.604;10.078;2023-03-22T10:51:40;100284.06;;;13.08;86.26
50103;BME280;35993;52.604;10.078;2023-03-22T10:54:13;100282.44;;;13.07;85.90
50103;BME280;35993;52.604;10.078;2023-03-22T10:56:39;100284.66;;;13.10;84.18
50103;BME280;35993;52.604;10.078;2023-03-22T10:59:05;100276.00;;;13.13;83.29
50103;BME280;35993;52.604;10.078;2023-03-22T11:01:33;100275.19;;;13.13;83.37
50103;BME280;35993;52.604;10.078;2023-03-22T11:04:10;100271.72;;;13.17;82.44
50103;BME280;35993;52.604;10.078;2023-03-22T11:06:47;100281.34;;;13.37;83.20
50103;BME280;35993;52.604;10.078;2023-03-22T11:09:21;100284.44;;;13.57;82.21
50103;BME280;35993;52.604;10.078;2023-03-22T11:12:00;100267.81;;;13.59;80.69
50103;BME280;35993;52.604;10.078;2023-03-22T11:14:35;100269.22;;;13.44;80.25
50103;BME280;35993;52.604;10.078;2023-03-22T11:17:10;100263.84;;;13.50;80.96
50103;BME280;35993;52.604;10.078;2023-03-22T11:19:40;100259.88;;;13.57;80.75
50103;BME280;35993;52.604;10.078;2023-03-22T11:22:25;100263.34;;;13.53;80.17
50103;BME280;35993;52.604;10.078;2023-03-22T11:24:57;100251.72;;;13.40;79.37
50103;BME280;35993;52.604;10.078;2023-03-22T11:27:26;100257.25;;;13.46;79.38
50103;BME280;35993;52.604;10.078;2023-03-22T11:29:57;100252.94;;;13.50;78.96
50103;BME280;35993;52.604;10.078;2023-03-22T11:32:27;100256.34;;;13.57;79.67
50103;BME280;35993;52.604;10.078;2023-03-22T11:35:04;100253.03;;;13.55;78.27
50103;BME280;35993;52.604;10.078;2023-03-22T11:37:30;100261.19;;;13.55;78.88
50103;BME280;35993;52.604;10.078;2023-03-22T11:40:00;100256.47;;;13.50;77.02
50103;BME280;35993;52.604;10.078;2023-03-22T11:42:32;100254.34;;;13.52;76.99
50103;BME280;35993;52.604;10.078;2023-03-22T11:44:58;100260.22;;;13.44;75.97
50103;BME280;35993;52.604;10.078;2023-03-22T11:47:25;100257.72;;;13.42;75.95
50103;BME280;35993;52.604;10.078;2023-03-22T11:49:52;100254.53;;;13.46;76.21
50103;BME280;35993;52.604;10.078;2023-03-22T11:52:23;100257.41;;;13.56;75.27
50103;BME280;35993;52.604;10.078;2023-03-22T11:54:51;100253.78;;;13.67;73.88
50103;BME280;35993;52.604;10.078;2023-03-22T11:57:21;100243.34;;;13.64;72.97
50103;BME280;35993;52.604;10.078;2023-03-22T11:59:54;100252.69;;;13.68;73.29
50103;BME280;35993;52.604;10.078;2023-03-22T12:02:27;100252.38;;;13.65;71.90
50103;BME280;35993;52.604;10.078;2023-03-22T12:05:11;100245.59;;;13.67;71.68
50103;BME280;35993;52.604;10.078;2023-03-22T12:07:39;100249.28;;;13.78;72.70
50103;BME280;35993;52.604;10.078;2023-03-22T12:10:20;100243.28;;;13.76;71.85
50103;BME280;35993;52.604;10.078;2023-03-22T12:12:54;100242.72;;;13.57;71.94
50103;BME280;35993;52.604;10.078;2023-03-22T12:15:25;100249.72;;;13.70;72.74
50103;BME280;35993;52.604;10.078;2023-03-22T12:18:05;100251.75;;;13.80;73.44
50103;BME280;35993;52.604;10.078;2023-03-22T12:23:01;100242.94;;;13.72;72.07
50103;BME280;35993;52.604;10.078;2023-03-22T12:25:34;100254.56;;;13.85;71.98
50103;BME280;35993;52.604;10.078;2023-03-22T12:28:07;100247.00;;;14.09;70.86
50103;BME280;35993;52.604;10.078;2023-03-22T12:30:42;100240.19;;;13.89;70.85
50103;BME280;35993;52.604;10.078;2023-03-22T12:33:19;100248.81;;;13.81;72.65
50103;BME280;35993;52.604;10.078;2023-03-22T12:35:49;100258.94;;;13.86;72.51
50103;BME280;35993;52.604;10.078;2023-03-22T12:38:22;100253.50;;;13.86;72.05
50103;BME280;35993;52.604;10.078;2023-03-22T12:40:54;100250.44;;;13.82;73.08
50103;BME280;35993;52.604;10.078;2023-03-22T12:43:45;100250.88;;;13.74;72.34
50103;BME280;35993;52.604;10.078;2023-03-22T12:46:22;100241.28;;;13.71;72.52
50103;BME280;35993;52.604;10.078;2023-03-22T12:49:12;100244.59;;;13.73;71.97
50103;BME280;35993;52.604;10.078;2023-03-22T12:51:45;100241.94;;;13.79;73.34
50103;BME280;35993;52.604;10.078;2023-03-22T12:54:13;100236.31;;;13.85;71.24
50103;BME280;35993;52.604;10.078;2023-03-22T12:56:43;100230.59;;;13.87;70.15
50103;BME280;35993;52.604;10.078;2023-03-22T12:59:15;100220.34;;;13.94;70.53
50103;BME280;35993;52.604;10.078;2023-03-22T13:01:48;100228.81;;;13.98;70.01
50103;BME280;35993;52.604;10.078;2023-03-22T13:09:46;100220.25;;;13.89;69.71
50103;BME280;35993;52.604;10.078;2023-03-22T13:32:46;100219.06;;;14.02;70.37
50103;BME280;35993;52.604;10.078;2023-03-22T13:35:24;100209.81;;;14.03;70.48
50103;BME280;35993;52.604;10.078;2023-03-22T13:37:59;100212.84;;;14.06;70.93
50103;BME280;35993;52.604;10.078;2023-03-22T13:40:36;100206.75;;;13.99;70.09
50103;BME280;35993;52.604;10.078;2023-03-22T13:43:09;100202.78;;;13.90;69.87
50103;BME280;35993;52.604;10.078;2023-03-22T13:45:57;100210.69;;;13.86;70.60
50103;BME280;35993;52.604;10.078;2023-03-22T13:59:12;100216.72;;;13.71;70.42
50103;BME280;35993;52.604;10.078;2023-03-22T14:01:51;100208.47;;;13.66;70.15
50103;BME280;35993;52.604;10.078;2023-03-22T14:04:27;100204.00;;;13.60;69.83
50103;BME280;35993;52.604;10.078;2023-03-22T14:06:57;100213.84;;;13.61;70.46
50103;BME280;35993;52.604;10.078;2023-03-22T14:09:28;100211.38;;;13.59;69.96
50103;BME280;35993;52.604;10.078;2023-03-22T14:12:04;100214.09;;;13.59;70.62
50103;BME280;35993;52.604;10.078;2023-03-22T14:14:38;100226.66;;;13.60;71.73
50103;BME280;35993;52.604;10.078;2023-03-22T14:17:30;100230.63;;;13.53;71.47
50103;BME280;35993;52.604;10.078;2023-03-22T14:19:59;100237.41;;;13.50;72.67